Tiempo atmosférico en la estación meteorológica de Valleseco, Las Palmas (900 m.)



Fecha
DESCASC
Temp. máxima en grados centígrados (hora)
DESCASC
Temp. mínima en grados centígrados (hora)
DESCASC
Temp. media en grados centígrados
DESCASC
Racha de viento máxima en m/sg (hora)
DESCASC
Velocidad máxima media en intervalos de 10 minutos(hora)
DESCASC
Precipitaciones diarias en mm
DESCASC
Precipitaciones de 00:00 a 06:00 en mm
DESCASC
Precipitaciones de 06:00 a 12:00 en mm
DESCASC
Precipitaciones de 12:00 a 18:00 en mm
DESCASC
Precipitaciones de 18:00 a 24:00 en mm
DESCASC
03-12-2020 18.4 (12:00) 10.3 (04:20) 14.3 5 (23:40) 4.17 (23:40) 0 0 0 0 0
02-12-2020 17.5 (11:40) 11 (23:10) 14.3 8.33 (03:30) 5.28 (03:40) 0 0 0 0 0
01-12-2020 17.7 (10:30) 11.7 (02:50) 14.7 11.11 (17:50) 5 (18:20) 0.8 0 0 0.8 0
30-11-2020 17.7 (13:30) 10.5 (00:00) 14.1 10.28 (04:30) 4.17 (08:50) 0 0 0 0 0
29-11-2020 12.7 (13:40) 9.9 (00:00) 11.3 10 (23:59) 3.89 (22:10) 6.8 0 5 1.6 0.2
28-11-2020 15.7 (15:10) 9.7 (00:00) 12.7 7.78 (01:00) 5 (01:00) 12.4 9 2.8 0.6 0
27-11-2020 12.9 (15:20) 8.4 (00:00) 10.6 13.06 (20:30) 7.5 (02:50) 8.2 1.8 3 1.8 1.6
26-11-2020 10.9 (14:40) 8.2 (00:00) 9.5 17.22 (16:20) 10.56 (16:20) 18.2 9.4 3.6 2.6 2.6
25-11-2020 17.6 (11:40) 9.5 (00:00) 13.6 12.22 (22:10) 6.67 (21:50) 15.4 0 0 0.6 14.8
24-11-2020 21.7 (14:50) 14.7 (00:00) 18.2 13.61 (02:00) 9.17 (01:30) 0 0 0 0 0
23-11-2020 22.7 (14:00) 14.8 (00:00) 18.8 12.78 (04:40) 9.17 (04:40) 0 0 0 0 0
22-11-2020 20.9 (14:10) 15.2 (00:00) 18 12.5 (09:10) 8.61 (01:10) 0 0 0 0 0
21-11-2020 20.6 (13:00) 15.7 (00:00) 18.2 15.28 (09:00) 10.83 (09:10) 0 0 0 0 0
20-11-2020 23.6 (14:50) 12.2 (00:00) 17.9 12.78 (07:20) 8.61 (07:30) 0 0 0 0 0
19-11-2020 17.7 (11:30) 13.1 (00:00) 15.4 6.39 (13:30) 4.44 (16:00) 0 0 0 0 0
18-11-2020 26.5 (11:40) 15.9 (00:00) 21.2 8.33 (09:40) 5.83 (09:40) 0 0 0 0 0
17-11-2020 26.4 (11:10) 19.8 (00:00) 23.1 13.33 (05:00) 8.61 (05:00) 0 0 0 0 0
16-11-2020 28.4 (12:40) 19.5 (00:00) 23.9 10.83 (12:10) 6.11 (12:10) 0 0 0 0 0
15-11-2020 28.6 (16:00) 20.2 (00:00) 24.4 11.39 (10:30) 5.28 (09:40) 0 0 0 0 0
14-11-2020 28.8 (13:50) 20.1 (00:00) 24.4 12.78 (15:50) 5 (11:20) 0 0 0 0 0
13-11-2020 23.9 (16:40) 18.7 (00:00) 21.3 8.89 (12:50) 6.39 (13:00) 0 0 0 0 0
12-11-2020 25.9 (14:00) 15.2 (00:00) 20.5 6.39 (23:00) 5.56 (23:00) 0 0 0 0 0
11-11-2020 22 (13:50) 11.4 (00:00) 16.7 5.83 (07:30) 3.89 (13:00) 0 0 0 0 0
10-11-2020 16.8 (15:10) 11.5 (00:00) 14.1 9.72 (10:30) 7.22 (10:30) 1.2 0.6 0.6 0 0
09-11-2020 -- (--) -- (--) -- -- (--) -- (--) -- 0 -- -- 0.2
08-11-2020 17.5 (10:00) 11.7 (00:00) 14.6 3.61 (15:20) 2.5 (00:50) 0.2 0 0 0.2 0
07-11-2020 19.3 (11:00) 11.5 (00:00) 15.4 4.72 (09:40) 3.33 (08:40) 0 0 0 0 0
06-11-2020 21.1 (14:00) 12 (00:00) 16.6 13.06 (08:10) 5.28 (08:10) 0 0 0 0 0
05-11-2020 19.6 (16:50) 10.2 (00:00) 14.9 10 (15:30) 4.17 (07:20) 1.4 1.2 0.2 0 0

Gráficas

Temp. máximas Temp. mínimas Temp. medias Precipitaciones Rachas de viento máximas Velocidades máximas media en intervalos de 10 minutos

Datos horarios

Fecha y hora oficial Temperatura (ºC) Velocidad del viento (km/h) Dirección del viento Racha (km/h) Dirección de racha Precipitación (mm) Presión (hPa) Tendencia (hPa) Humedad (%)
2020-12-04 23:00:00 11 10 Oeste 17 Oeste 0 -- -- 99
2020-12-04 22:00:00 10.2 9 Oeste 17 Oeste 0 -- -- 99
2020-12-04 21:00:00 11.6 9 Noroeste 23 Norte 0 -- -- 99
2020-12-04 20:00:00 11.8 15 Norte 30 Norte 2.8 -- -- 99
2020-12-04 19:00:00 12.1 13 Norte 26 Noroeste 1.8 -- -- 98
2020-12-04 18:00:00 12.1 6 Oeste 15 Noroeste 1.8 -- -- 94
2020-12-04 17:00:00 13.4 11 Norte 21 Noroeste 0 -- -- 91
2020-12-04 16:00:00 15.3 8 Noroeste 16 Norte 0 -- -- 79
2020-12-04 15:00:00 15.5 6 Noroeste 13 Noroeste 0 -- -- 86
2020-12-04 14:00:00 16 5 Noroeste 13 Noroeste 0 -- -- 82
2020-12-04 13:00:00 15.1 7 Noroeste 12 Noroeste 0 -- -- 82
2020-12-04 12:00:00 14.5 7 Norte 12 Norte 0 -- -- 86
2020-12-04 11:00:00 14.7 4 Norte 10 Norte 0 -- -- 87
2020-12-04 10:00:00 14 3 Norte 5 Norte 0 -- -- 84
2020-12-04 09:00:00 12.5 3 Noroeste 8 Noroeste 0 -- -- 89
2020-12-04 08:00:00 11.4 5 Oeste 8 Noroeste 0 -- -- 93
2020-12-04 07:00:00 11.3 3 Oeste 13 Noroeste 0 -- -- 88
2020-12-04 06:00:00 11 10 Noroeste 16 Noroeste 0 -- -- 86
2020-12-04 05:00:00 11.1 6 Sudoeste 13 Oeste 0 -- -- 81
2020-12-04 04:00:00 11.6 4 Oeste 12 Norte 0 -- -- 83
2020-12-04 03:00:00 12.2 7 Sudeste 13 Sudeste 0 -- -- 76
2020-12-04 02:00:00 11.8 8 Sudeste 15 Sudeste 0 -- -- 81
2020-12-04 01:00:00 12 11 Sudeste 19 Sudeste 0 -- -- 78
2020-12-04 00:00:00 11.7 15 Sudeste 18 Sudeste 0 -- -- 82
2020-12-03 23:00:00 11.9 9 Sudeste 13 Sudeste 0 -- -- 80
2020-12-03 22:00:00 12.7 10 Sudeste 13 Sudeste 0 -- -- 73
2020-12-03 21:00:00 12.5 9 Sudeste 15 Sudeste 0 -- -- 77
2020-12-03 20:00:00 12.5 4 Sudoeste 9 Este 0 -- -- 90
2020-12-03 19:00:00 12.5 4 Este 15 Sudeste 0 -- -- 88
2020-12-03 18:00:00 13.1 8 Este 12 Este 0 -- -- 95
2020-12-03 17:00:00 14.3 0 Calma 9 Norte 0 -- -- 81
2020-12-03 16:00:00 14.6 3 Norte 11 Norte 0 -- -- 79
2020-12-03 15:00:00 14.7 6 Norte 13 Norte 0 -- -- 78
2020-12-03 14:00:00 15.4 4 Noroeste 10 Norte 0 -- -- 78
2020-12-03 13:00:00 15.6 7 Norte 13 Norte 0 -- -- 76
2020-12-03 12:00:00 18.4 4 Sudeste 15 Sudeste 0 -- -- 66
2020-12-03 11:00:00 16.4 3 Noroeste 10 Norte 0 -- -- 61
2020-12-03 10:00:00 16.2 4 Este 10 Este 0 -- -- 56
2020-12-03 09:00:00 14.6 7 Este 10 Este 0 -- -- 58
2020-12-03 08:00:00 12.1 6 Sudeste 13 Sudeste 0 -- -- 67
2020-12-03 07:00:00 11.3 6 Sudeste 13 Sudeste 0 -- -- 70
2020-12-03 06:00:00 11 8 Este 10 Este 0 -- -- 84
2020-12-03 05:00:00 10.7 6 Sudeste 9 Sudeste 0 -- -- 81
2020-12-03 04:00:00 10.6 0 Calma 7 Norte 0 -- -- 92
2020-12-03 03:00:00 11.3 5 Norte 7 Norte 0 -- -- 77
2020-12-03 02:00:00 11 4 Sudeste 6 Sudeste 0 -- -- 76
2020-12-03 01:00:00 11.3 4 Noroeste 9 Norte 0 -- -- 89
2020-12-03 00:00:00 11.2 3 Norte 13 Sudeste 0 -- -- 82
2020-12-02 23:00:00 11.3 7 Sudeste 14 Sudeste 0 -- -- 82
2020-12-02 22:00:00 11.6 11 Sudeste 13 Sudeste 0 -- -- 89
2020-12-02 21:00:00 12.3 4 Sudoeste 10 Sudeste 0 -- -- 84
2020-12-02 20:00:00 11.9 2 Sur 10 Sudeste 0 -- -- 97
2020-12-02 19:00:00 12.3 0 Calma 6 Oeste 0 -- -- 97
2020-12-02 18:00:00 13.4 0 Calma 9 Norte 0 -- -- 94
2020-12-02 17:00:00 13.9 5 Norte 17 Norte 0 -- -- 93
2020-12-02 16:00:00 14.8 4 Norte 12 Noroeste 0 -- -- 87
2020-12-02 15:00:00 14.7 5 Norte 16 Sudeste 0 -- -- 88
2020-12-02 14:00:00 16.8 3 Nordeste 20 Este 0 -- -- 81
2020-12-02 13:00:00 15 14 Este 20 Este 0 -- -- 85
2020-12-02 12:00:00 15.8 6 Este 14 Este 0 -- -- 77
2020-12-02 11:00:00 17 9 Este 18 Sudeste 0 -- -- 69
2020-12-02 10:00:00 14.6 4 Norte 7 Norte 0 -- -- 79
2020-12-02 09:00:00 13.6 2 Noroeste 6 Norte 0 -- -- 78
2020-12-02 08:00:00 12.3 2 Sudoeste 22 Norte 0 -- -- 81
2020-12-02 07:00:00 13 11 Este 22 Nordeste 0 -- -- 78
2020-12-02 06:00:00 13.7 7 Norte 20 Sur 0 -- -- 73
2020-12-02 05:00:00 12.5 11 Sudeste 19 Sudeste 0 -- -- 84
2020-12-02 04:00:00 14 8 Sudoeste 30 Sudoeste 0 -- -- 72
2020-12-02 03:00:00 13.4 9 Sudoeste 19 Oeste 0 -- -- 76
2020-12-02 02:00:00 13.3 9 Sur 22 Sudoeste 0 -- -- 78
2020-12-02 01:00:00 12.8 10 Sudeste 23 Sudeste 0 -- -- 83
2020-12-02 00:00:00 12.5 9 Sudeste 14 Sudeste 0 -- -- 85
2020-12-01 23:00:00 12.5 8 Este 16 Sudoeste 0 -- -- 80
2020-12-01 22:00:00 13 0 Calma 16 Oeste 0 -- -- 78
2020-12-01 21:00:00 12.6 9 Sudeste 19 Sudeste 0 -- -- 79
2020-12-01 20:00:00 12.9 8 Nordeste 31 Sur 0 -- -- 78
2020-12-01 19:00:00 13.3 9 Sur 39 Sudoeste 0 -- -- 76
2020-12-01 18:00:00 13.1 15 Sudoeste 40 Sudoeste 0 -- -- 78
2020-12-01 17:00:00 15.1 2 Nordeste 15 Este 0 -- -- 79
2020-12-01 16:00:00 13.7 3 Nordeste 9 Este 0.6 -- -- 93
2020-12-01 15:00:00 14.1 6 Este 21 Sudeste 0 -- -- 89
2020-12-01 14:00:00 14.9 2 Oeste 15 Sudeste 0.2 -- -- 87
2020-12-01 13:00:00 17.2 9 Sudoeste 21 Sudoeste 0 -- -- 63
2020-12-01 12:00:00 16.2 9 Sudeste 22 Sudeste 0 -- -- 65
2020-12-01 11:00:00 16 4 Sudoeste 12 Sudeste 0 -- -- 69
2020-12-01 10:00:00 16.6 4 Este 21 Sudoeste 0 -- -- 67
2020-12-01 09:00:00 14.2 4 Sur 29 Sudeste 0 -- -- 71
2020-12-01 08:00:00 12.7 11 Sudeste 25 Sur 0 -- -- 78
2020-12-01 07:00:00 12.5 12 Sur 19 Sur 0 -- -- 80
2020-12-01 06:00:00 12.6 8 Este 22 Este 0 -- -- 77
2020-12-01 05:00:00 12.8 12 Este 24 Este 0 -- -- 78
2020-12-01 04:00:00 12.2 8 Sur 28 Sur 0 -- -- 80
2020-12-01 03:00:00 12 14 Sudeste 24 Sudoeste 0 -- -- 82
2020-12-01 02:00:00 12.5 10 Sudeste 18 Sudeste 0 -- -- 80
2020-12-01 01:00:00 12.3 9 Sudeste 28 Sudeste 0 -- -- 79
2020-12-01 00:00:00 12.2 10 Sudeste 18 Sudeste 0 -- -- 78
2020-11-30 23:00:00 12 9 Sudeste 26 Sudoeste 0 -- -- 86
2020-11-30 22:00:00 12.2 6 Sur 25 Sudoeste 0 -- -- 80
2020-11-30 21:00:00 12.5 9 Sur 27 Sudoeste 0 -- -- 77
2020-11-30 20:00:00 12.4 8 Sur 22 Sudeste 0 -- -- 82
2020-11-30 19:00:00 12.2 3 Este 29 Sudoeste 0 -- -- 81
2020-11-30 18:00:00 12.5 10 Sudoeste 31 Sudoeste 0 -- -- 80
2020-11-30 17:00:00 14 6 Sudeste 27 Sudoeste 0 -- -- 81
2020-11-30 16:00:00 15.4 5 Sudeste 22 Sudoeste 0 -- -- 72
2020-11-30 15:00:00 16.4 6 Sur 24 Sur 0 -- -- 70
2020-11-30 14:00:00 17.6 8 Sudoeste 32 Sur 0 -- -- 58
2020-11-30 13:00:00 16.6 15 Sudoeste 28 Sur 0 -- -- 63
2020-11-30 12:00:00 17.1 4 Este 13 Sudeste 0 -- -- 65
2020-11-30 11:00:00 13.6 10 Este 18 Este 0 -- -- 79
2020-11-30 10:00:00 12.9 9 Sudeste 22 Este 0 -- -- 79
2020-11-30 09:00:00 12 13 Este 25 Este 0 -- -- 81
2020-11-30 08:00:00 12.1 12 Este 21 Sudeste 0 -- -- 79
2020-11-30 07:00:00 11.3 4 Este 15 Nordeste 0 -- -- 82
2020-11-30 06:00:00 11.1 4 Este 15 Sudeste 0 -- -- 81
2020-11-30 05:00:00 11.4 7 Sur 37 Sudoeste 0 -- -- 77
2020-11-30 04:00:00 11 6 Sur 26 Este 0 -- -- 76
2020-11-30 03:00:00 11 6 Este 25 Sudoeste 0 -- -- 72
2020-11-30 02:00:00 11.2 10 Sudoeste 31 Sudoeste 0 -- -- 74
2020-11-30 01:00:00 11.3 9 Nordeste 36 Oeste 0 -- -- 73
2020-11-30 00:00:00 10.9 10 Sudoeste 36 Sudoeste 0 -- -- 77
2020-11-29 23:00:00 11.6 9 Sudoeste 30 Sudoeste 0 -- -- 78
2020-11-29 22:00:00 11.1 13 Sur 23 Sudoeste 0 -- -- 86
2020-11-29 21:00:00 10.1 7 Sur 19 Sudoeste 0.2 -- -- 98
2020-11-29 20:00:00 10.2 5 Noroeste 10 Noroeste 0 -- -- 99
2020-11-29 19:00:00 10.3 4 Norte 8 Noroeste 0 -- -- 99
2020-11-29 18:00:00 10.9 4 Noroeste 14 Sudeste 0 -- -- 98
2020-11-29 17:00:00 11.1 11 Sudeste 17 Sudeste 0 -- -- 96
2020-11-29 16:00:00 12 3 Noroeste 8 Norte 0 -- -- 95
2020-11-29 15:00:00 12.6 4 Noroeste 13 Noroeste 1.2 -- -- 97
2020-11-29 14:00:00 12 9 Norte 16 Norte 0.2 -- -- 96
2020-11-29 13:00:00 11.8 4 Noroeste 13 Norte 0.2 -- -- 98
2020-11-29 12:00:00 11.5 9 Noroeste 16 Noroeste 0.2 -- -- 98
2020-11-29 11:00:00 11.8 3 Norte 8 Norte 0.2 -- -- 99
2020-11-29 10:00:00 11.1 3 Noroeste 16 Norte 1 -- -- 100
2020-11-29 09:00:00 11.3 2 Oeste 9 Noroeste 0.8 -- -- 100
2020-11-29 08:00:00 10.5 4 Norte 9 Noroeste 1.8 -- -- 99
2020-11-29 07:00:00 10 4 Sur 10 Sur 1 -- -- 98
2020-11-29 06:00:00 10.3 0 Calma 12 Norte 0 -- -- 97
2020-11-29 05:00:00 10.9 7 Oeste 23 Oeste 0 -- -- 83
2020-11-29 04:00:00 11 4 Norte 9 Sur 0 -- -- 86
2020-11-29 03:00:00 10.7 3 Norte 6 Nordeste 0 -- -- 91
2020-11-29 02:00:00 10.6 4 Nordeste 5 Norte 0 -- -- 96
2020-11-29 01:00:00 10.5 0 Calma 6 Sur 0 -- -- 98
2020-11-29 00:00:00 10.7 5 Sudeste 9 Este 0 -- -- 98
2020-11-28 23:00:00 11.1 0 Calma 13 Este 0 -- -- 94
2020-11-28 22:00:00 10.6 10 Sudeste 17 Sudeste 0 -- -- 98
2020-11-28 21:00:00 10.5 13 Sudeste 16 Sudeste 0 -- -- 99
2020-11-28 20:00:00 11 3 Nordeste 9 Norte 0 -- -- 99
2020-11-28 19:00:00 11.4 0 Calma 11 Oeste 0 -- -- 98
2020-11-28 18:00:00 12.4 7 Oeste 15 Oeste 0 -- -- 96
2020-11-28 17:00:00 14.1 9 Noroeste 20 Norte 0 -- -- 88
2020-11-28 16:00:00 14.9 10 Noroeste 18 Noroeste 0 -- -- 89
2020-11-28 15:00:00 15.2 10 Noroeste 18 Noroeste 0 -- -- 90
2020-11-28 14:00:00 14.1 12 Noroeste 20 Noroeste 0 -- -- 98
2020-11-28 13:00:00 13.4 9 Noroeste 15 Noroeste 0.6 -- -- 99
2020-11-28 12:00:00 13.7 8 Noroeste 21 Oeste 0 -- -- 98
2020-11-28 11:00:00 12.1 10 Noroeste 18 Noroeste 2 -- -- 99
2020-11-28 10:00:00 12.7 6 Noroeste 18 Noroeste 0.6 -- -- 100
2020-11-28 09:00:00 11.4 10 Oeste 22 Oeste 0.2 -- -- 100
2020-11-28 08:00:00 10.7 15 Oeste 25 Oeste 0 -- -- 100
2020-11-28 07:00:00 10 12 Oeste 20 Oeste 0 -- -- 100
2020-11-28 06:00:00 10.1 9 Oeste 19 Oeste 0 -- -- 100
2020-11-28 05:00:00 10.9 15 Oeste 23 Oeste 0.2 -- -- 100
2020-11-28 04:00:00 10.8 13 Noroeste 26 Norte 0.8 -- -- 100
2020-11-28 03:00:00 11 15 Oeste 25 Oeste 2.4 -- -- 100
2020-11-28 02:00:00 11.2 13 Noroeste 26 Oeste 4.2 -- -- 100
2020-11-28 01:00:00 11.2 18 Noroeste 28 Noroeste 1.4 -- -- 100
2020-11-28 00:00:00 10.9 15 Noroeste 32 Oeste 0 -- -- 100
2020-11-27 23:00:00 11.2 18 Noroeste 39 Noroeste 0.8 -- -- 100
2020-11-27 22:00:00 10.7 16 Oeste 35 Oeste 0.2 -- -- 100
2020-11-27 21:00:00 10.9 21 Noroeste 47 Oeste 0.6 -- -- 99
2020-11-27 20:00:00 10.8 22 Oeste 42 Oeste 0 -- -- 99
2020-11-27 19:00:00 10.6 19 Noroeste 39 Noroeste 0 -- -- 99
2020-11-27 18:00:00 10.5 17 Noroeste 37 Oeste 0.4 -- -- 98
2020-11-27 17:00:00 10.6 22 Noroeste 41 Noroeste 1.2 -- -- 98
2020-11-27 16:00:00 12.7 20 Noroeste 42 Noroeste 0 -- -- 86
2020-11-27 15:00:00 12.6 23 Noroeste 45 Oeste 0 -- -- 88
2020-11-27 14:00:00 12.4 22 Noroeste 37 Noroeste 0 -- -- 85
2020-11-27 13:00:00 11.5 22 Oeste 40 Noroeste 0.2 -- -- 95
2020-11-27 12:00:00 11 21 Oeste 35 Noroeste 0.4 -- -- 97
2020-11-27 11:00:00 9.5 23 Oeste 41 Oeste 0.8 -- -- 99
2020-11-27 10:00:00 9.6 21 Noroeste 42 Oeste 0.8 -- -- 98
2020-11-27 09:00:00 9.1 20 Noroeste 35 Norte 0 -- -- 97
2020-11-27 08:00:00 8.7 21 Noroeste 45 Noroeste 0.2 -- -- 99
2020-11-27 07:00:00 8.5 21 Noroeste 41 Noroeste 0.8 -- -- 99
2020-11-27 06:00:00 8.8 24 Noroeste 42 Noroeste 0.8 -- -- 98
2020-11-27 05:00:00 8.5 17 Oeste 46 Noroeste 0.6 -- -- 97
2020-11-27 04:00:00 9.3 22 Noroeste 45 Noroeste 0 -- -- 96
2020-11-27 03:00:00 8.7 26 Noroeste 47 Noroeste 0 -- -- 93
2020-11-27 02:00:00 8.7 19 Noroeste 39 Noroeste 0.2 -- -- 98
2020-11-27 01:00:00 9 19 Noroeste 43 Noroeste 0.2 -- -- 99
2020-11-27 00:00:00 8.7 21 Noroeste 41 Noroeste 0 -- -- 99
2020-11-26 23:00:00 8.2 27 Noroeste 43 Noroeste 1 -- -- 98
2020-11-26 22:00:00 8.8 23 Noroeste 53 Noroeste 1.4 -- -- 99
2020-11-26 21:00:00 9.3 28 Noroeste 55 Noroeste 0 -- -- 94
2020-11-26 20:00:00 9.6 32 Noroeste 61 Noroeste 0 -- -- 93
2020-11-26 19:00:00 9.6 30 Noroeste 53 Noroeste 0.2 -- -- 96
2020-11-26 18:00:00 9.3 30 Noroeste 61 Noroeste 0 -- -- 98
2020-11-26 17:00:00 10.2 28 Noroeste 62 Norte 0.4 -- -- 99
2020-11-26 16:00:00 10.3 28 Noroeste 53 Oeste 0.2 -- -- 95
2020-11-26 15:00:00 10.3 28 Noroeste 53 Oeste 0.6 -- -- 98
2020-11-26 14:00:00 10.1 24 Noroeste 48 Norte 1.4 -- -- 100
2020-11-26 13:00:00 9.7 21 Noroeste 39 Norte 0 -- -- 99
2020-11-26 12:00:00 9.8 24 Noroeste 45 Noroeste 0.4 -- -- 100
2020-11-26 11:00:00 9.7 23 Noroeste 42 Oeste 0 -- -- 99
2020-11-26 10:00:00 9.3 22 Noroeste 44 Noroeste 0 -- -- 100
2020-11-26 09:00:00 9.1 24 Noroeste 43 Noroeste 0.8 -- -- 100
2020-11-26 08:00:00 9.5 18 Noroeste 43 Oeste 0.8 -- -- 100
2020-11-26 07:00:00 9 24 Oeste 41 Oeste 1.6 -- -- 100
2020-11-26 06:00:00 8.8 20 Noroeste 36 Noroeste 1.8 -- -- 100
2020-11-26 05:00:00 8.8 21 Noroeste 39 Oeste 1.2 -- -- 100
2020-11-26 04:00:00 9.2 21 Noroeste 45 Noroeste 2 -- -- 100
2020-11-26 03:00:00 9.5 22 Noroeste 39 Noroeste 2 -- -- 100
2020-11-26 02:00:00 9.3 15 Noroeste 33 Noroeste 2 -- -- 100
2020-11-26 01:00:00 9.5 15 Noroeste 32 Noroeste 0.4 -- -- 99
2020-11-26 00:00:00 9.6 17 Oeste 33 Noroeste 0 -- -- 99
2020-11-25 23:00:00 9.9 19 Noroeste 44 Norte 0.8 -- -- 99
2020-11-25 22:00:00 10.9 20 Noroeste 41 Noroeste 3 -- -- 99
2020-11-25 21:00:00 11.5 17 Noroeste 38 Noroeste 4.4 -- -- 99
2020-11-25 20:00:00 11.6 23 Noroeste 41 Noroeste 1.8 -- -- 98
2020-11-25 19:00:00 12.1 19 Noroeste 42 Noroeste 4.8 -- -- 98
2020-11-25 18:00:00 12.7 20 Noroeste 35 Noroeste 0.4 -- -- 96
2020-11-25 17:00:00 13.8 15 Oeste 26 Noroeste 0 -- -- 81
2020-11-25 16:00:00 14.8 16 Noroeste 32 Oeste 0 -- -- 79
2020-11-25 15:00:00 16.8 14 Noroeste 26 Noroeste 0 -- -- 73
2020-11-25 14:00:00 13.7 13 Noroeste 28 Norte 0.2 -- -- 93
2020-11-25 13:00:00 16.9 16 Noroeste 33 Noroeste 0 -- -- 76
2020-11-25 12:00:00 17.1 17 Noroeste 28 Noroeste 0 -- -- 74
2020-11-25 11:00:00 16.7 10 Noroeste 19 Noroeste 0 -- -- 80
2020-11-25 10:00:00 15.2 10 Noroeste 22 Noroeste 0 -- -- 88
2020-11-25 09:00:00 14.3 12 Oeste 22 Oeste 0 -- -- 87
2020-11-25 08:00:00 12.8 12 Oeste 16 Oeste 0 -- -- 91
2020-11-25 07:00:00 11.9 10 Oeste 13 Noroeste 0 -- -- 86
2020-11-25 06:00:00 12.7 7 Noroeste 10 Oeste 0 -- -- 59
2020-11-25 05:00:00 13.9 8 Oeste 10 Oeste 0 -- -- 33
2020-11-25 04:00:00 15.5 4 Noroeste 8 Noroeste 0 -- -- 30
2020-11-25 03:00:00 15.8 4 Noroeste 6 Oeste 0 -- -- 27
2020-11-25 02:00:00 16.1 4 Oeste 6 Oeste 0 -- -- 28
2020-11-25 01:00:00 16 5 Oeste 6 Este 0 -- -- 28
2020-11-25 00:00:00 15.9 6 Este 14 Sudeste 0 -- -- 27
2020-11-24 23:00:00 15.6 12 Sudeste 17 Sudeste 0 -- -- 29
2020-11-24 22:00:00 15.7 11 Sudeste 14 Sudeste 0 -- -- 34
2020-11-24 21:00:00 15.6 9 Sudeste 20 Sudeste 0 -- -- 35
2020-11-24 20:00:00 15.8 12 Sudeste 17 Sudeste 0 -- -- 40
2020-11-24 19:00:00 15.7 11 Sudeste 14 Este 0 -- -- 48
2020-11-24 18:00:00 15.9 4 Sudeste 6 Sudeste 0 -- -- 62
2020-11-24 17:00:00 17.3 0 Calma 4 Sudeste 0 -- -- 58
2020-11-24 16:00:00 17.3 3 Norte 17 Nordeste 0 -- -- 58
2020-11-24 15:00:00 20.8 3 Norte 18 Sudeste 0 -- -- 38
2020-11-24 14:00:00 19.3 6 Norte 24 Este 0 -- -- 45
2020-11-24 13:00:00 20.8 13 Este 28 Este 0 -- -- 19
2020-11-24 12:00:00 21.2 10 Sudeste 33 Sudeste 0 -- -- 16
2020-11-24 11:00:00 18.7 21 Sudeste 33 Sudeste 0 -- -- 19
2020-11-24 10:00:00 18.6 25 Sudeste 37 Sudeste 0 -- -- 18
2020-11-24 09:00:00 17.6 18 Sudeste 26 Sudeste 0 -- -- 20
2020-11-24 08:00:00 17.2 8 Sudeste 19 Sudeste 0 -- -- 23
2020-11-24 07:00:00 16.2 3 Sudeste 8 Sudeste 0 -- -- 28
2020-11-24 06:00:00 16.3 0 Calma 8 Sudeste 0 -- -- 32
2020-11-24 05:00:00 16 5 Sur 15 Sur 0 -- -- 30
2020-11-24 04:00:00 15.1 13 Sudeste 34 Sudeste 0 -- -- 37
2020-11-24 03:00:00 15.9 29 Sudeste 46 Este 0 -- -- 37
2020-11-24 02:00:00 16.7 30 Sudeste 49 Sudeste 0 -- -- 34
2020-11-24 01:00:00 15.8 18 Sudeste 28 Sudeste 0 -- -- 34
2020-11-24 00:00:00 16.4 18 Sudeste 29 Sudeste 0 -- -- 32
2020-11-23 23:00:00 16.5 12 Sudeste 27 Sudeste 0 -- -- 32
2020-11-23 22:00:00 17.3 18 Sudeste 36 Sudeste 0 -- -- 30
2020-11-23 21:00:00 17.1 17 Sudeste 27 Sudeste 0 -- -- 29
2020-11-23 20:00:00 17 17 Sudeste 33 Sudeste 0 -- -- 30
2020-11-23 19:00:00 16.3 14 Sudeste 20 Sudeste 0 -- -- 36
2020-11-23 18:00:00 16.4 9 Sudeste 14 Sudeste 0 -- -- 42
2020-11-23 17:00:00 19.7 4 Nordeste 12 Este 0 -- -- 38
2020-11-23 16:00:00 20.7 5 Norte 13 Sudeste 0 -- -- 46
2020-11-23 15:00:00 20.4 9 Este 21 Este 0 -- -- 40
2020-11-23 14:00:00 22.7 5 Este 25 Este 0 -- -- 36
2020-11-23 13:00:00 21.8 15 Este 30 Este 0 -- -- 29
2020-11-23 12:00:00 22.4 14 Sudeste 33 Sudeste 0 -- -- 29
2020-11-23 11:00:00 21.3 18 Sudeste 32 Sudeste 0 -- -- 29
2020-11-23 10:00:00 19.9 18 Sudeste 38 Este 0 -- -- 34
2020-11-23 09:00:00 18.4 23 Sudeste 35 Sudeste 0 -- -- 34
2020-11-23 08:00:00 16.8 14 Sudeste 31 Sudeste 0 -- -- 36
2020-11-23 07:00:00 15.7 17 Sudeste 33 Sudeste 0 -- -- 38
2020-11-23 06:00:00 14.8 20 Sudeste 40 Sudeste 0 -- -- 44
2020-11-23 05:00:00 15.7 29 Sudeste 46 Sudeste 0 -- -- 42
2020-11-23 04:00:00 16.3 28 Sudeste 45 Sudeste 0 -- -- 39
2020-11-23 03:00:00 16.5 25 Sudeste 39 Sudeste 0 -- -- 38
2020-11-23 02:00:00 16.5 21 Sudeste 34 Sudeste 0 -- -- 40
2020-11-23 01:00:00 15.6 21 Sudeste 31 Este 0 -- -- 40
2020-11-23 00:00:00 15.7 19 Sudeste 28 Sudeste 0 -- -- 38
2020-11-22 23:00:00 15.9 20 Sudeste 33 Sudeste 0 -- -- 39
2020-11-22 22:00:00 15.9 19 Sudeste 30 Sudeste 0 -- -- 40
2020-11-22 21:00:00 16.2 21 Sudeste 32 Sudeste 0 -- -- 38
2020-11-22 20:00:00 16.3 18 Sudeste 40 Sudeste 0 -- -- 35
2020-11-22 19:00:00 16 19 Sudeste 31 Sudeste 0 -- -- 37
2020-11-22 18:00:00 16.4 21 Sudeste 34 Sudeste 0 -- -- 38
2020-11-22 17:00:00 17.3 23 Sudeste 37 Este 0 -- -- 40
2020-11-22 16:00:00 19.4 20 Sudeste 37 Sudeste 0 -- -- 39
2020-11-22 15:00:00 20 20 Este 35 Este 0 -- -- 33
2020-11-22 14:00:00 20.4 22 Sudeste 34 Sudeste 0 -- -- 34
2020-11-22 13:00:00 20.2 20 Este 36 Este 0 -- -- 40
2020-11-22 12:00:00 20.2 21 Sudeste 41 Sudeste 0 -- -- 35
2020-11-22 11:00:00 18.5 29 Sudeste 40 Sudeste 0 -- -- 34
2020-11-22 10:00:00 18.3 26 Sudeste 45 Sudeste 0 -- -- 41
2020-11-22 09:00:00 16.5 31 Sudeste 42 Sudeste 0 -- -- 41
2020-11-22 08:00:00 15.6 23 Sudeste 40 Sudeste 0 -- -- 46
2020-11-22 07:00:00 15.3 24 Sudeste 41 Sudeste 0 -- -- 45
2020-11-22 06:00:00 15.2 20 Sudeste 39 Sudeste 0 -- -- 45
2020-11-22 05:00:00 15.3 22 Sudeste 39 Sudeste 0 -- -- 46
2020-11-22 04:00:00 15.5 23 Sudeste 42 Sudeste 0 -- -- 45
2020-11-22 03:00:00 15.5 23 Sudeste 40 Sudeste 0 -- -- 44
2020-11-22 02:00:00 15.5 24 Sudeste 43 Sudeste 0 -- -- 43
2020-11-22 01:00:00 15.6 26 Sudeste 39 Sudeste 0 -- -- 43
2020-11-22 00:00:00 15.7 28 Sudeste 44 Sudeste 0 -- -- 43
2020-11-21 23:00:00 15.8 29 Sudeste 41 Sudeste 0 -- -- 42
2020-11-21 22:00:00 15.8 25 Sudeste 43 Sudeste 0 -- -- 44
2020-11-21 21:00:00 16.3 28 Sudeste 46 Sudeste 0 -- -- 41
2020-11-21 20:00:00 16.5 29 Sudeste 50 Sudeste 0 -- -- 39
2020-11-21 19:00:00 16.9 32 Sudeste 50 Sudeste 0 -- -- 38
2020-11-21 18:00:00 16.7 29 Sudeste 45 Este 0 -- -- 40
2020-11-21 17:00:00 17.9 24 Sudeste 44 Sudeste 0 -- -- 38
2020-11-21 16:00:00 19 27 Sudeste 46 Sudeste 0 -- -- 36
2020-11-21 15:00:00 19.8 29 Sudeste 49 Sudeste 0 -- -- 34
2020-11-21 14:00:00 20.2 28 Sudeste 48 Sudeste 0 -- -- 32
2020-11-21 13:00:00 20.6 26 Sudeste 45 Este 0 -- -- 33
2020-11-21 12:00:00 20.4 25 Sudeste 46 Este 0 -- -- 33
2020-11-21 11:00:00 20 28 Sudeste 54 Sudeste 0 -- -- 33
2020-11-21 10:00:00 19.1 33 Sudeste 55 Sudeste 0 -- -- 33
2020-11-21 09:00:00 18.1 36 Sudeste 55 Sudeste 0 -- -- 31
2020-11-21 08:00:00 17.2 27 Sudeste 47 Sudeste 0 -- -- 32
2020-11-21 07:00:00 16.6 27 Sudeste 52 Sudeste 0 -- -- 33
2020-11-21 06:00:00 16.7 30 Sudeste 53 Sudeste 0 -- -- 33
2020-11-21 05:00:00 16.6 30 Sudeste 46 Sudeste 0 -- -- 33
2020-11-21 04:00:00 16.5 27 Sudeste 44 Sudeste 0 -- -- 33
2020-11-21 03:00:00 16.8 24 Sudeste 43 Sudeste 0 -- -- 30
2020-11-21 02:00:00 17.5 24 Sudeste 39 Sudeste 0 -- -- 33
2020-11-21 01:00:00 17.8 20 Sudeste 36 Sudeste 0 -- -- 31
2020-11-21 00:00:00 17.7 19 Sudeste 36 Sudeste 0 -- -- 29
2020-11-20 23:00:00 18.4 24 Sudeste 37 Sudeste 0 -- -- 29
2020-11-20 22:00:00 18.5 23 Sudeste 37 Sudeste 0 -- -- 30
2020-11-20 21:00:00 18.4 14 Sudeste 29 Sudeste 0 -- -- 33
2020-11-20 20:00:00 18.5 13 Sudeste 25 Sudeste 0 -- -- 32
2020-11-20 19:00:00 18.8 13 Sudeste 22 Sudeste 0 -- -- 27
2020-11-20 18:00:00 17.8 11 Sudeste 27 Sudeste 0 -- -- 35
2020-11-20 17:00:00 20.7 16 Sudeste 24 Sudeste 0 -- -- 22
2020-11-20 16:00:00 22.2 9 Este 29 Sudeste 0 -- -- 34
2020-11-20 15:00:00 23.2 10 Sudeste 29 Este 0 -- -- 35
2020-11-20 14:00:00 23.1 13 Sudeste 37 Sudeste 0 -- -- 36
2020-11-20 13:00:00 22 22 Sudeste 35 Sudeste 0 -- -- 40
2020-11-20 12:00:00 21.9 23 Sudeste 37 Sudeste 0 -- -- 39
2020-11-20 11:00:00 20.4 23 Sudeste 36 Sudeste 0 -- -- 51
2020-11-20 10:00:00 20.3 21 Sudeste 34 Sudeste 0 -- -- 48
2020-11-20 09:00:00 20.6 18 Sudeste 36 Sudeste 0 -- -- 34
2020-11-20 08:00:00 19 26 Sudeste 46 Sudeste 0 -- -- 34
2020-11-20 07:00:00 17.7 22 Sudeste 41 Sudeste 0 -- -- 35
2020-11-20 06:00:00 18.1 18 Sudeste 26 Sudeste 0 -- -- 34
2020-11-20 05:00:00 15.6 16 Sudeste 18 Sudeste 0 -- -- 42
2020-11-20 04:00:00 18.1 13 Sudeste 21 Sur 0 -- -- 33
2020-11-20 03:00:00 17.2 13 Sudeste 22 Sudeste 0 -- -- 38
2020-11-20 02:00:00 17.8 14 Sudeste 18 Sur 0 -- -- 38
2020-11-20 01:00:00 16.5 16 Sudeste 21 Sudeste 0 -- -- 41
2020-11-20 00:00:00 13.5 9 Sudeste 14 Sudeste 0 -- -- 80
2020-11-19 23:00:00 17.3 13 Sudeste 20 Sudeste 0 -- -- 41
2020-11-19 22:00:00 16.5 11 Sudeste 14 Sudeste 0 -- -- 59
2020-11-19 21:00:00 16.8 2 Sudoeste 8 Oeste 0 -- -- 59
2020-11-19 20:00:00 15.9 5 Sudoeste 8 Oeste 0 -- -- 70
2020-11-19 19:00:00 14.5 3 Sudoeste 14 Sudeste 0 -- -- 99
2020-11-19 18:00:00 14.7 12 Sudeste 16 Sudeste 0 -- -- 96
2020-11-19 17:00:00 15.7 14 Sudeste 19 Sudeste 0 -- -- 96
2020-11-19 16:00:00 15.3 16 Sudeste 21 Sudeste 0 -- -- 97
2020-11-19 15:00:00 15.2 9 Este 18 Este 0 -- -- 96
2020-11-19 14:00:00 16.4 12 Sudeste 23 Este 0 -- -- 88
2020-11-19 13:00:00 17.3 14 Este 20 Este 0 -- -- 84
2020-11-19 12:00:00 16.7 9 Este 17 Sudeste 0 -- -- 85
2020-11-19 11:00:00 15.9 9 Este 16 Este 0 -- -- 89
2020-11-19 10:00:00 15.6 3 Este 10 Noroeste 0 -- -- 88
2020-11-19 09:00:00 14.6 4 Norte 9 Norte 0 -- -- 95
2020-11-19 08:00:00 14 5 Norte 11 Norte 0 -- -- 96
2020-11-19 07:00:00 13.9 3 Nordeste 10 Norte 0 -- -- 97
2020-11-19 06:00:00 13.7 2 Sudeste 12 Noroeste 0 -- -- 97
2020-11-19 05:00:00 13.8 7 Oeste 16 Norte 0 -- -- 97
2020-11-19 04:00:00 13.4 8 Noroeste 12 Noroeste 0 -- -- 97
2020-11-19 03:00:00 13.6 6 Oeste 12 Noroeste 0 -- -- 96
2020-11-19 02:00:00 13.5 7 Noroeste 10 Noroeste 0 -- -- 92
2020-11-19 01:00:00 14 5 Noroeste 12 Oeste 0 -- -- 90
2020-11-19 00:00:00 15.9 7 Noroeste 15 Norte 0 -- -- 43
2020-11-18 23:00:00 16.6 8 Oeste 11 Oeste 0 -- -- 39
2020-11-18 22:00:00 17.1 6 Oeste 12 Oeste 0 -- -- 38
2020-11-18 21:00:00 16.6 8 Oeste 12 Oeste 0 -- -- 42
2020-11-18 20:00:00 16.5 9 Oeste 13 Oeste 0 -- -- 45
2020-11-18 19:00:00 16.6 8 Noroeste 14 Norte 0 -- -- 46
2020-11-18 18:00:00 18.5 2 Sudoeste 7 Norte 0 -- -- 61
2020-11-18 17:00:00 22.1 4 Noroeste 10 Noroeste 0 -- -- 50
2020-11-18 16:00:00 24.8 3 Norte 8 Norte 0 -- -- 39
2020-11-18 15:00:00 22.2 5 Noroeste 14 Norte 0 -- -- 48
2020-11-18 14:00:00 25.7 8 Norte 19 Noroeste 0 -- -- 34
2020-11-18 13:00:00 25.7 7 Norte 21 Sudeste 0 -- -- 32
2020-11-18 12:00:00 26.2 12 Este 23 Sudeste 0 -- -- 25
2020-11-18 11:00:00 25.5 15 Sudeste 28 Sudeste 0 -- -- 26
2020-11-18 10:00:00 23.9 18 Sudeste 30 Sudeste 0 -- -- 27
2020-11-18 09:00:00 22.1 17 Sudeste 26 Sudeste 0 -- -- 29
2020-11-18 08:00:00 19.9 16 Sudeste 23 Sudeste 0 -- -- 33
2020-11-18 07:00:00 19.2 12 Sudeste 19 Sur 0 -- -- 32
2020-11-18 06:00:00 19.2 12 Sudeste 20 Sudeste 0 -- -- 31
2020-11-18 05:00:00 19 12 Sudeste 18 Sudeste 0 -- -- 33
2020-11-18 04:00:00 19.6 8 Sur 18 Sur 0 -- -- 32
2020-11-18 03:00:00 19.7 11 Sudeste 19 Sudeste 0 -- -- 33
2020-11-18 02:00:00 19.6 8 Sur 14 Sudeste 0 -- -- 32
2020-11-18 01:00:00 19.8 9 Sudeste 13 Sudeste 0 -- -- 31
2020-11-18 00:00:00 19.8 10 Sudeste 15 Sudeste 0 -- -- 31
2020-11-17 23:00:00 20.2 9 Sudeste 13 Sudeste 0 -- -- 31
2020-11-17 22:00:00 20.3 9 Sudeste 11 Sudeste 0 -- -- 30
2020-11-17 21:00:00 20.2 6 Sudeste 8 Sudeste 0 -- -- 31
2020-11-17 20:00:00 20.3 4 Sudeste 10 Sudeste 0 -- -- 32
2020-11-17 19:00:00 20.5 7 Sudeste 10 Sudeste 0 -- -- 35
2020-11-17 18:00:00 21.3 6 Este 20 Este 0 -- -- 38
2020-11-17 17:00:00 24.7 7 Sudeste 24 Sudeste 0 -- -- 30
2020-11-17 16:00:00 25.2 13 Sudeste 33 Sudeste 0 -- -- 28
2020-11-17 15:00:00 25.6 19 Sudeste 45 Sudeste 0 -- -- 24
2020-11-17 14:00:00 25.7 24 Sudeste 43 Sudeste 0 -- -- 24
2020-11-17 13:00:00 26.1 26 Sudeste 47 Sudeste 0 -- -- 22
2020-11-17 12:00:00 26.3 21 Sudeste 41 Sudeste 0 -- -- 23
2020-11-17 11:00:00 25.6 15 Sudeste 33 Sudeste 0 -- -- 24
2020-11-17 10:00:00 23.9 20 Sudeste 35 Sudeste 0 -- -- 25
2020-11-17 09:00:00 22.5 13 Sudeste 25 Sudeste 0 -- -- 28
2020-11-17 08:00:00 21.8 15 Sudeste 26 Sudeste 0 -- -- 27
2020-11-17 07:00:00 20.3 17 Sudeste 37 Sudeste 0 -- -- 31
2020-11-17 06:00:00 21.1 28 Sudeste 46 Sudeste 0 -- -- 30
2020-11-17 05:00:00 21.6 31 Sudeste 48 Sudeste 0 -- -- 27
2020-11-17 04:00:00 21.6 24 Sudeste 37 Sudeste 0 -- -- 26
2020-11-17 03:00:00 21.6 19 Sudeste 29 Este 0 -- -- 26
2020-11-17 02:00:00 21.9 18 Sudeste 29 Sudeste 0 -- -- 26
2020-11-17 01:00:00 22 17 Sudeste 30 Sudeste 0 -- -- 25
2020-11-17 00:00:00 22.3 20 Sudeste 30 Este 0 -- -- 25
2020-11-16 23:00:00 21.8 18 Sudeste 27 Sudeste 0 -- -- 26
2020-11-16 22:00:00 21.7 13 Sudeste 21 Sudeste 0 -- -- 26
2020-11-16 21:00:00 21 9 Sudeste 15 Sudeste 0 -- -- 30
2020-11-16 20:00:00 21 8 Sudeste 10 Sudeste 0 -- -- 43
2020-11-16 19:00:00 21.6 4 Sur 5 Sudeste 0 -- -- 38
2020-11-16 18:00:00 22 0 Calma 5 Oeste 0 -- -- 48
2020-11-16 17:00:00 22.7 2 Oeste 12 Noroeste 0 -- -- 48
2020-11-16 16:00:00 26.6 6 Norte 12 Sudeste 0 -- -- 42
2020-11-16 15:00:00 27.2 10 Sudeste 17 Este 0 -- -- 34
2020-11-16 14:00:00 24.3 2 Nordeste 9 Norte 0 -- -- 39
2020-11-16 13:00:00 25.2 6 Norte 39 Sudeste 0 -- -- 50
2020-11-16 12:00:00 26.4 19 Sudeste 35 Sudeste 0 -- -- 22
2020-11-16 11:00:00 27.1 17 Este 30 Sudeste 0 -- -- 23
2020-11-16 10:00:00 24.8 18 Sudeste 31 Sudeste 0 -- -- 27
2020-11-16 09:00:00 20.6 17 Sudeste 32 Sudeste 0 -- -- 34
2020-11-16 08:00:00 22.2 18 Sudeste 30 Sudeste 0 -- -- 27
2020-11-16 07:00:00 21.8 19 Sudeste 27 Sudeste 0 -- -- 28
2020-11-16 06:00:00 22.2 15 Sudeste 30 Sudeste 0 -- -- 28
2020-11-16 05:00:00 22.6 18 Sudeste 27 Sudeste 0 -- -- 26
2020-11-16 04:00:00 22.9 16 Sudeste 31 Sur 0 -- -- 26
2020-11-16 03:00:00 23.2 18 Sur 31 Sur 0 -- -- 26
2020-11-16 02:00:00 22.8 12 Sur 24 Sudeste 0 -- -- 26
2020-11-16 01:00:00 20.2 9 Sudeste 18 Este 0 -- -- 33
2020-11-16 00:00:00 22.8 10 Sur 23 Sur 0 -- -- 22
2020-11-15 23:00:00 22.2 10 Sur 24 Sudoeste 0 -- -- 23
2020-11-15 22:00:00 21 9 Sur 15 Sur 0 -- -- 26
2020-11-15 21:00:00 21.4 9 Sur 21 Sudoeste 0 -- -- 25
2020-11-15 20:00:00 21.7 10 Sudoeste 22 Sudoeste 0 -- -- 25
2020-11-15 19:00:00 21.6 9 Sudoeste 22 Sudoeste 0 -- -- 26
2020-11-15 18:00:00 22.6 10 Sudoeste 26 Sur 0 -- -- 24
2020-11-15 17:00:00 25 10 Sur 21 Sudoeste 0 -- -- 23
2020-11-15 16:00:00 28.6 8 Sudoeste 30 Sudoeste 0 -- -- 20
2020-11-15 15:00:00 27.4 15 Sur 32 Sudoeste 0 -- -- 23
2020-11-15 14:00:00 27.7 9 Sur 23 Este 0 -- -- 30
2020-11-15 13:00:00 25.6 10 Este 19 Este 0 -- -- 48
2020-11-15 12:00:00 26.2 8 Sudeste 31 Sudeste 0 -- -- 48
2020-11-15 11:00:00 23.5 11 Sudoeste 41 Sur 0 -- -- 28
2020-11-15 10:00:00 22.9 14 Sudoeste 38 Sur 0 -- -- 32
2020-11-15 09:00:00 22.1 15 Sur 34 Sur 0 -- -- 33
2020-11-15 08:00:00 21.9 15 Sudoeste 33 Sudoeste 0 -- -- 34
2020-11-15 07:00:00 21.5 14 Sudoeste 35 Sudoeste 0 -- -- 35
2020-11-15 06:00:00 21.8 13 Sudoeste 34 Sudoeste 0 -- -- 35
2020-11-15 05:00:00 21.8 13 Sur 30 Sur 0 -- -- 34
2020-11-15 04:00:00 21.9 13 Sudoeste 32 Sudeste 0 -- -- 31
2020-11-15 03:00:00 22.4 12 Sudoeste 35 Sudoeste 0 -- -- 32
2020-11-15 02:00:00 22.2 13 Sur 35 Sudoeste 0 -- -- 35
2020-11-15 01:00:00 22.5 14 Sudoeste 34 Sudoeste 0 -- -- 33
2020-11-15 00:00:00 21.8 10 Sudoeste 30 Sudoeste 0 -- -- 34
2020-11-14 23:00:00 22.3 12 Sudoeste 29 Oeste 0 -- -- 31
2020-11-14 22:00:00 22.3 9 Sur 35 Sudeste 0 -- -- 30
2020-11-14 21:00:00 22.4 3 Noroeste 20 Sudoeste 0 -- -- 30
2020-11-14 20:00:00 22.2 5 Sur 32 Sudoeste 0 -- -- 31
2020-11-14 19:00:00 23 6 Nordeste 20 Sudoeste 0 -- -- 25
2020-11-14 18:00:00 22.5 8 Este 37 Sudoeste 0 -- -- 24
2020-11-14 17:00:00 23.2 10 Sur 39 Sudoeste 0 -- -- 27
2020-11-14 16:00:00 24.4 14 Sudoeste 46 Sudoeste 0 -- -- 24
2020-11-14 15:00:00 26.6 11 Sudoeste 30 Sudoeste 0 -- -- 21
2020-11-14 14:00:00 28.3 6 Noroeste 31 Sudoeste 0 -- -- 26
2020-11-14 13:00:00 25.3 13 Sudeste 43 Sudoeste 0 -- -- 25
2020-11-14 12:00:00 25.6 9 Sudoeste 40 Sudoeste 0 -- -- 23
2020-11-14 11:00:00 24.1 13 Sudoeste 36 Sudoeste 0 -- -- 24
2020-11-14 10:00:00 23.8 16 Sudoeste 35 Sudoeste 0 -- -- 24
2020-11-14 09:00:00 22.7 9 Sudoeste 32 Sudoeste 0 -- -- 23
2020-11-14 08:00:00 22 7 Sur 27 Sudoeste 0 -- -- 24
2020-11-14 07:00:00 22.8 10 Sudoeste 29 Oeste 0 -- -- 22
2020-11-14 06:00:00 22.9 13 Sudoeste 27 Sudoeste 0 -- -- 23
2020-11-14 05:00:00 22.4 14 Sudoeste 40 Sudoeste 0 -- -- 24
2020-11-14 04:00:00 21.9 8 Sur 29 Sudoeste 0 -- -- 24
2020-11-14 03:00:00 22.6 10 Sudoeste 34 Sur 0 -- -- 24
2020-11-14 02:00:00 22.1 13 Sudoeste 28 Sudoeste 0 -- -- 24
2020-11-14 01:00:00 20.9 10 Sur 23 Sudoeste 0 -- -- 28
2020-11-14 00:00:00 20.1 3 Oeste 19 Sudeste 0 -- -- 31
2020-11-13 23:00:00 21.3 5 Este 26 Sur 0 -- -- 26
2020-11-13 22:00:00 21.8 18 Sudeste 30 Sudeste 0 -- -- 25
2020-11-13 21:00:00 21 9 Sudeste 21 Sudeste 0 -- -- 28
2020-11-13 20:00:00 21.2 13 Sudeste 19 Este 0 -- -- 28
2020-11-13 19:00:00 21.5 10 Sudeste 18 Sudeste 0 -- -- 28
2020-11-13 18:00:00 21.5 8 Sur 27 Sudeste 0 -- -- 29
2020-11-13 17:00:00 23.7 15 Sur 31 Sudoeste 0 -- -- 24
2020-11-13 16:00:00 21.3 13 Sur 23 Sur 0 -- -- 34
2020-11-13 15:00:00 20.8 9 Sudeste 17 Sudeste 0 -- -- 48
2020-11-13 14:00:00 20.9 10 Sudeste 27 Este 0 -- -- 48
2020-11-13 13:00:00 20.4 23 Sudeste 32 Sudeste 0 -- -- 51
2020-11-13 12:00:00 20 19 Sudeste 25 Sudeste 0 -- -- 50
2020-11-13 11:00:00 20.1 15 Sudeste 22 Sudeste 0 -- -- 42
2020-11-13 10:00:00 20.3 2 Sudoeste 9 Norte 0 -- -- 33
2020-11-13 09:00:00 20.2 2 Noroeste 8 Norte 0 -- -- 34
2020-11-13 08:00:00 20.4 0 Calma 4 Noroeste 0 -- -- 35
2020-11-13 07:00:00 20.6 2 Noroeste 6 Noroeste 0 -- -- 33
2020-11-13 06:00:00 20.7 0 Calma 5 Sudeste 0 -- -- 34
2020-11-13 05:00:00 20.2 3 Sudeste 8 Noroeste 0 -- -- 34
2020-11-13 04:00:00 20.8 0 Calma 6 Sudoeste 0 -- -- 31
2020-11-13 03:00:00 20.4 6 Oeste 12 Oeste 0 -- -- 37
2020-11-13 02:00:00 19.6 6 Sudeste 14 Sudeste 0 -- -- 44
2020-11-13 01:00:00 19.3 9 Sudeste 21 Sudeste 0 -- -- 50
2020-11-13 00:00:00 19 17 Sudeste 23 Sudeste 0 -- -- 56
2020-11-12 23:00:00 18.6 20 Sudeste 23 Sudeste 0 -- -- 65
2020-11-12 22:00:00 18.8 15 Sudeste 18 Sudeste 0 -- -- 68
2020-11-12 21:00:00 20.4 3 Este 6 Sudeste 0 -- -- 51
2020-11-12 20:00:00 20.8 0 Calma 7 Noroeste 0 -- -- 47
2020-11-12 19:00:00 21.3 5 Oeste 9 Oeste 0 -- -- 46
2020-11-12 18:00:00 20.6 5 Noroeste 7 Noroeste 0 -- -- 79
2020-11-12 17:00:00 24.2 0 Calma 9 Este 0 -- -- 55
2020-11-12 16:00:00 22.4 6 Este 10 Este 0 -- -- 72
2020-11-12 15:00:00 25.6 3 Sur 14 Norte 0 -- -- 59
2020-11-12 14:00:00 25.9 4 Este 16 Este 0 -- -- 52
2020-11-12 13:00:00 22.7 8 Sudeste 12 Sudeste 0 -- -- 54
2020-11-12 12:00:00 23.4 0 Calma 8 Norte 0 -- -- 49
2020-11-12 11:00:00 22.9 4 Norte 9 Norte 0 -- -- 52
2020-11-12 10:00:00 22.3 5 Este 10 Norte 0 -- -- 54
2020-11-12 09:00:00 20.1 6 Oeste 9 Oeste 0 -- -- 47
2020-11-12 08:00:00 19.8 10 Oeste 13 Noroeste 0 -- -- 45
2020-11-12 07:00:00 19.7 6 Noroeste 16 Oeste 0 -- -- 37
2020-11-12 06:00:00 19.4 9 Noroeste 16 Oeste 0 -- -- 26
2020-11-12 05:00:00 20.1 4 Noroeste 19 Oeste 0 -- -- 19
2020-11-12 04:00:00 19.7 12 Noroeste 18 Noroeste 0 -- -- 21
2020-11-12 03:00:00 16 10 Oeste 14 Oeste 0 -- -- 42
2020-11-12 02:00:00 19.2 6 Oeste 10 Oeste 0 -- -- 30
2020-11-12 01:00:00 20.9 3 Este 12 Oeste 0 -- -- 23
2020-11-12 00:00:00 16 5 Noroeste 12 Noroeste 0 -- -- 56
2020-11-11 23:00:00 14.6 9 Noroeste 12 Oeste 0 -- -- 77
2020-11-11 22:00:00 13.1 5 Noroeste 10 Noroeste 0 -- -- 98
2020-11-11 21:00:00 13.5 5 Noroeste 9 Norte 0 -- -- 97
2020-11-11 20:00:00 14.3 3 Sur 11 Norte 0 -- -- 82
2020-11-11 19:00:00 15.6 7 Noroeste 14 Oeste 0 -- -- 68
2020-11-11 18:00:00 15.3 5 Noroeste 15 Noroeste 0 -- -- 95
2020-11-11 17:00:00 15.9 8 Sudeste 10 Sudeste 0 -- -- 95
2020-11-11 16:00:00 16.7 4 Noroeste 14 Noroeste 0 -- -- 92
2020-11-11 15:00:00 20.3 7 Sudeste 13 Este 0 -- -- 78
2020-11-11 14:00:00 21.5 4 Norte 18 Sudeste 0 -- -- 74
2020-11-11 13:00:00 20.1 14 Sudeste 19 Sudeste 0 -- -- 78
2020-11-11 12:00:00 19.6 8 Sudeste 14 Sudeste 0 -- -- 81
2020-11-11 11:00:00 20.9 3 Nordeste 10 Noroeste 0 -- -- 65
2020-11-11 10:00:00 20.6 4 Sudeste 12 Sudeste 0 -- -- 61
2020-11-11 09:00:00 15.6 5 Noroeste 12 Norte 0 -- -- 69
2020-11-11 08:00:00 17.4 0 Calma 21 Norte 0 -- -- 39
2020-11-11 07:00:00 20.2 4 Sudeste 13 Sudeste 0 -- -- 33
2020-11-11 06:00:00 18.1 7 Sudeste 13 Sudeste 0 -- -- 39
2020-11-11 05:00:00 18.2 7 Sudeste 11 Sudeste 0 -- -- 35
2020-11-11 04:00:00 17.4 4 Sudeste 8 Sudeste 0 -- -- 38
2020-11-11 03:00:00 16.8 0 Calma 8 Oeste 0 -- -- 34
2020-11-11 02:00:00 12.7 4 Este 10 Sudeste 0 -- -- 95
2020-11-11 01:00:00 11.7 9 Sudeste 14 Sudeste 0 -- -- 100
2020-11-11 00:00:00 12 10 Sudeste 17 Sudeste 0 -- -- 99
2020-11-10 23:00:00 12.6 10 Sudeste 15 Sudeste 0 -- -- 98
2020-11-10 22:00:00 13.5 5 Sudeste 12 Sudeste 0 -- -- 85
2020-11-10 21:00:00 14.5 5 Sudeste 14 Sudeste 0 -- -- 67
2020-11-10 20:00:00 12 4 Sudeste 17 Sudeste 0 -- -- 98
2020-11-10 19:00:00 12.8 14 Sudeste 22 Este 0 -- -- 99
2020-11-10 18:00:00 13.2 15 Sudeste 21 Este 0 -- -- 97
2020-11-10 17:00:00 15.2 16 Sudeste 24 Este 0 -- -- 87
2020-11-10 16:00:00 16.2 18 Este 28 Este 0 -- -- 79
2020-11-10 15:00:00 16.6 19 Este 29 Este 0 -- -- 82
2020-11-10 14:00:00 15.7 23 Este 35 Este 0 -- -- 88
2020-11-10 13:00:00 15 20 Este 31 Sudeste 0 -- -- 98
2020-11-10 12:00:00 13.9 19 Sudeste 32 Sudeste 0 -- -- 100
2020-11-10 11:00:00 13.2 20 Este 35 Sudeste 0 -- -- 100
2020-11-10 10:00:00 13.2 23 Sudeste 32 Este 0 -- -- 100
2020-11-10 09:00:00 12.8 19 Sudeste 28 Este 0 -- -- 100
2020-11-10 08:00:00 12.9 12 Sudeste 26 Este 0 -- -- 100
2020-11-10 07:00:00 12.5 12 Sudeste 24 Sudeste 0.6 -- -- 100
2020-11-10 06:00:00 12.8 9 Sudeste 29 Sudeste 0.2 -- -- 100
2020-11-10 05:00:00 12.9 16 Sudeste 31 Sudeste 0.2 -- -- 100
2020-11-10 04:00:00 12.6 20 Sudeste 29 Sudeste 0 -- -- 100
2020-11-10 03:00:00 12.5 15 Sudeste 27 Este 0 -- -- 100
2020-11-10 02:00:00 12.9 18 Sudeste 27 Sudeste 0 -- -- 100
2020-11-10 01:00:00 13 14 Este 27 Sudeste 0.2 -- -- 100
2020-11-10 00:00:00 12.9 16 Sudeste 27 Este 0 -- -- 100
2020-11-09 23:00:00 12.6 13 Sudeste 26 Sudeste 0 -- -- 99
2020-11-09 22:00:00 12.9 14 Sudeste 25 Este 0.2 -- -- 100
2020-11-09 21:00:00 13 12 Sudeste 22 Sudeste 0 -- -- 99
2020-11-09 20:00:00 13 13 Sudeste 19 Sudeste 0 -- -- 99
2020-11-09 19:00:00 13 9 Sudeste 20 Este 0 -- -- 99
2020-11-09 18:00:00 13.3 10 Sudeste 20 Este 0 -- -- 98
2020-11-09 17:00:00 14.1 10 Este 18 Este 0 -- -- 94
2020-11-09 16:00:00 14.3 12 Este 21 Este 0 -- -- 91
2020-11-09 15:00:00 15.1 11 Este 21 Sudeste 0 -- -- 88
2020-11-09 14:00:00 15.2 12 Este 22 Este 0 -- -- 85
2020-11-09 13:00:00 15.8 14 Este -- -- -- -- -- 77
2020-11-09 12:00:00 -- -- -- -- -- -- -- -- --
2020-11-09 11:00:00 16 12 Este 24 Sudeste 0 -- -- 80
2020-11-09 10:00:00 16.1 14 Sudeste 20 Sudeste 0 -- -- 79
2020-11-09 09:00:00 13.5 12 Sudeste 18 Sudeste 0.2 -- -- 93
2020-11-09 08:00:00 12.2 8 Sur 17 Sudeste 0.2 -- -- 91
2020-11-09 07:00:00 11.7 12 Sudeste 18 Sudeste 0 -- -- 89
2020-11-09 06:00:00 11.2 9 Sudeste 13 Sudeste 0 -- -- 97
2020-11-09 05:00:00 11.5 0 Calma 8 Sur 0 -- -- 96
2020-11-09 04:00:00 11.9 3 Norte 8 Noroeste 0 -- -- 93
2020-11-09 03:00:00 11.7 2 Sudoeste 5 Sudoeste 0 -- -- 86
2020-11-09 02:00:00 11.2 0 Calma 4 Este 0 -- -- 92
2020-11-09 01:00:00 11.7 2 Norte 6 Norte 0 -- -- 94
2020-11-09 00:00:00 11.7 0 Calma 6 Sudoeste 0 -- -- 91
2020-11-08 23:00:00 11.9 2 Noroeste 6 Norte 0 -- -- 91
2020-11-08 22:00:00 11.8 0 Calma 5 Norte 0 -- -- 90
2020-11-08 21:00:00 12.1 0 Calma 6 Sur 0 -- -- 95
2020-11-08 20:00:00 12.8 2 Noroeste 11 Norte 0 -- -- 98
2020-11-08 19:00:00 13 2 Noroeste 10 Norte 0 -- -- 98
2020-11-08 18:00:00 13.2 3 Noroeste 6 Noroeste 0 -- -- 98
2020-11-08 17:00:00 13.4 3 Oeste 10 Noroeste 0 -- -- 98
2020-11-08 16:00:00 13.5 5 Norte 13 Norte 0.2 -- -- 97
2020-11-08 15:00:00 13.9 4 Norte 12 Norte 0 -- -- 96
2020-11-08 14:00:00 14.8 4 Noroeste 10 Norte 0 -- -- 94
2020-11-08 13:00:00 14.6 4 Norte 12 Norte 0 -- -- 94
2020-11-08 12:00:00 15 4 Norte 13 Noroeste 0 -- -- 92
2020-11-08 11:00:00 17 5 Norte 11 Noroeste 0 -- -- 83
2020-11-08 10:00:00 17.5 5 Norte 10 Noroeste 0 -- -- 79
2020-11-08 09:00:00 14.3 5 Noroeste 12 Noroeste 0 -- -- 88
2020-11-08 08:00:00 12.7 7 Noroeste 10 Noroeste 0 -- -- 91
2020-11-08 07:00:00 12.6 4 Noroeste 7 Noroeste 0 -- -- 88
2020-11-08 06:00:00 13 5 Noroeste 8 Oeste 0 -- -- 85
2020-11-08 05:00:00 12.9 5 Noroeste 8 Noroeste 0 -- -- 88
2020-11-08 04:00:00 13.1 3 Noroeste 5 Noroeste 0 -- -- 83
2020-11-08 03:00:00 12.9 2 Nordeste 12 Sudeste 0 -- -- 84
2020-11-08 02:00:00 12.8 9 Sudeste 10 Sudeste 0 -- -- 82
2020-11-08 01:00:00 12.8 7 Sudeste 12 Sudeste 0 -- -- 81
2020-11-08 00:00:00 13.4 10 Sudeste 13 Sudeste 0 -- -- 81
2020-11-07 23:00:00 13.3 10 Sudeste 14 Sudeste 0 -- -- 88
2020-11-07 22:00:00 13.2 10 Sudeste 12 Sudeste 0 -- -- 93
2020-11-07 21:00:00 13.3 4 Sudeste 8 Sudeste 0 -- -- 98
2020-11-07 20:00:00 13.5 0 Calma 4 Noroeste 0 -- -- 97
2020-11-07 19:00:00 13.7 2 Sudeste 5 Noroeste 0 -- -- 96
2020-11-07 18:00:00 14.6 3 Norte 6 Norte 0 -- -- 94
2020-11-07 17:00:00 15 4 Noroeste 13 Norte 0 -- -- 92
2020-11-07 16:00:00 15.6 5 Norte 10 Norte 0 -- -- 89
2020-11-07 15:00:00 15.6 4 Noroeste 10 Norte 0 -- -- 89
2020-11-07 14:00:00 16.2 5 Norte 10 Noroeste 0 -- -- 86
2020-11-07 13:00:00 16.9 7 Norte 13 Noroeste 0 -- -- 81
2020-11-07 12:00:00 17.8 7 Noroeste 13 Noroeste 0 -- -- 72
2020-11-07 11:00:00 19.3 5 Norte 14 Este 0 -- -- 61
2020-11-07 10:00:00 17.5 10 Este 17 Este 0 -- -- 69
2020-11-07 09:00:00 15.2 9 Sudeste 15 Sudeste 0 -- -- 77
2020-11-07 08:00:00 13.2 7 Sudeste 9 Sudeste 0 -- -- 81
2020-11-07 07:00:00 11.8 8 Sudeste 11 Sudeste 0 -- -- 86
2020-11-07 06:00:00 12.1 7 Sudeste 8 Este 0 -- -- 87
2020-11-07 05:00:00 11.6 7 Sudeste 10 Este 0 -- -- 91
2020-11-07 04:00:00 12 6 Este 12 Sudeste 0 -- -- 93
2020-11-07 03:00:00 11.6 10 Sudeste 12 Sudeste 0 -- -- 94
2020-11-07 02:00:00 12 7 Sudeste 9 Sudeste 0 -- -- 96
2020-11-07 01:00:00 12.6 5 Sudeste 6 Sudeste 0 -- -- 98
2020-11-07 00:00:00 13.1 0 Calma 6 Sudeste 0 -- -- 98
2020-11-06 23:00:00 13.2 4 Sudeste 7 Sudeste 0 -- -- 98
2020-11-06 22:00:00 13.2 2 Este 5 Nordeste 0 -- -- 97
2020-11-06 21:00:00 13.8 2 Norte 7 Norte 0 -- -- 96
2020-11-06 20:00:00 13.8 3 Norte 15 Noroeste 0 -- -- 95
2020-11-06 19:00:00 14.2 9 Norte 14 Noroeste 0 -- -- 92
2020-11-06 18:00:00 16.1 4 Norte 11 Noroeste 0 -- -- 81
2020-11-06 17:00:00 19.9 6 Nordeste 18 Este 0 -- -- 63
2020-11-06 16:00:00 20.4 10 Oeste 30 Oeste 0 -- -- 53
2020-11-06 15:00:00 20.6 12 Oeste 30 Oeste 0 -- -- 55
2020-11-06 14:00:00 21.1 13 Sudoeste 37 Oeste 0 -- -- 54
2020-11-06 13:00:00 19.9 14 Oeste 38 Oeste 0 -- -- 61
2020-11-06 12:00:00 18.9 18 Oeste 39 Oeste 0 -- -- 64
2020-11-06 11:00:00 18.5 10 Oeste 41 Sudoeste 0 -- -- 67
2020-11-06 10:00:00 17.4 16 Sudoeste 42 Oeste 0 -- -- 68
2020-11-06 09:00:00 15.3 11 Sudoeste 47 Sudoeste 0 -- -- 77
2020-11-06 08:00:00 14.1 12 Sudoeste 36 Sudoeste 0 -- -- 84
2020-11-06 07:00:00 13.8 14 Oeste 37 Sudoeste 0 -- -- 83
2020-11-06 06:00:00 13.9 14 Oeste 43 Oeste 0 -- -- 78
2020-11-06 05:00:00 13.2 12 Sudoeste 39 Sudoeste 0 -- -- 77
2020-11-06 04:00:00 13.2 12 Sudoeste 36 Oeste 0 -- -- 74
2020-11-06 03:00:00 12.8 10 Sudoeste 35 Sudoeste 0 -- -- 75
2020-11-06 02:00:00 12.8 3 Este 26 Sur 0 -- -- 72
2020-11-06 01:00:00 12.3 6 Sur 20 Sudoeste 0 -- -- 72
2020-11-06 00:00:00 12.7 4 Nordeste 19 Sur 0 -- -- 76
2020-11-05 23:00:00 13.8 3 Oeste 22 Sudeste 0 -- -- 72
2020-11-05 22:00:00 13.9 2 Sur 22 Sudeste 0 -- -- 77
2020-11-05 21:00:00 13.8 7 Sur 22 Norte 0 -- -- 80
2020-11-05 20:00:00 14.1 6 Sur 28 Sur 0 -- -- 74
2020-11-05 19:00:00 14.2 8 Sur 35 Sudoeste 0 -- -- 78
2020-11-05 18:00:00 13.6 7 Sudeste 17 Este 0 -- -- 93
2020-11-05 17:00:00 19.5 8 Oeste 33 Sudoeste 0 -- -- 56
2020-11-05 16:00:00 18.5 12 Oeste 36 Oeste 0 -- -- 59
2020-11-05 15:00:00 17.7 9 Noroeste 24 Oeste 0 -- -- 65
2020-11-05 14:00:00 17 5 Sudeste 18 Este 0 -- -- 82
2020-11-05 13:00:00 14.8 11 Este 19 Este 0 -- -- 89
2020-11-05 12:00:00 15.6 7 Este 20 Sudeste 0 -- -- 82
2020-11-05 11:00:00 17.6 8 Oeste 22 Oeste 0 -- -- 63
2020-11-05 10:00:00 16.5 3 Oeste 12 Noroeste 0.2 -- -- 76
2020-11-05 09:00:00 12.3 8 Noroeste 19 Oeste 0 -- -- 94
2020-11-05 08:00:00 11 13 Oeste 23 Oeste 0 -- -- 90
2020-11-05 07:00:00 10.2 12 Oeste 22 Oeste 0 -- -- 97
2020-11-05 06:00:00 10.2 14 Oeste 23 Oeste 0 -- -- 100
2020-11-05 05:00:00 10.8 13 Oeste 19 Oeste 0 -- -- 100
2020-11-05 04:00:00 11.2 9 Oeste 14 Oeste 0 -- -- 100
2020-11-05 03:00:00 11.7 9 Oeste 14 Oeste 0 -- -- 100
2020-11-05 02:00:00 11.9 8 Noroeste 15 Oeste 0.4 -- -- 100
2020-11-05 01:00:00 11.9 8 Oeste 19 Norte 0.8 -- -- 100
2020-11-05 00:00:00 12.3 7 Noroeste 18 Norte 1.8 -- -- 100